Hlavní strana
METAR-TAF:

METAR-TAF

Letiště :

Bolton Field

Columbus, Ohio, Spojené státy americké

zeměpisná šířka: 39-54-03N, zeměpisná délka: 083-08-14W, výška: 276 m

Aktuální stav počasí

Zpráva byla vytvořena před 22 minutami, v 01:35 UTC
Severní vítr 8 kt
Teplota 4°C
Vlhkost vzduchu 100%
Tlak 1011 hPa
Viditelnost: 6.4 km
Zataženo ve výšce 500 ft
slabý déšť

METAR: KTZR 260135Z AUTO 36008KT 4SM -RA OVC005 04/04 A2985 RMK AO2 P0002 T00400040

Čas: 20:57 (01:57 UTC)


TAF: chybějící

Stav a předpovědi počasí z více než 4 000 letišť (zprávy METAR a TAF).

Červené a žluté tečky na mapě představují dostupné meteorologické stanice.

Když kurzor umístíte na tečku, zobrazí se název stanice.

Pak kliknutím zobrazíte stav a předpověď počasí.

Chcete-li změnit mapu, kliknutím na zelené tlačítko se znaménkem +mapu přiblížíte, kliknutím na zelené tlačítko se znaménkem – mapu oddálíte a kliknutím na zelené šipky přejdete na sousední mapy.


METAR-TAF: